createdAt,value
2019-03-01T00:00:09.219Z,27.53
2019-03-01T00:02:38.766Z,22.50
2019-03-01T00:05:54.198Z,20.40
2019-03-01T00:08:32.987Z,20.57
2019-03-01T00:11:23.128Z,19.62
2019-03-01T00:14:15.096Z,17.85
2019-03-01T00:17:32.723Z,17.30
2019-03-01T00:20:44.495Z,16.90
2019-03-01T00:23:56.847Z,29.10
2019-03-01T00:27:07.112Z,19.57
2019-03-01T00:30:23.205Z,15.93
2019-03-01T00:33:14.560Z,17.33
2019-03-01T00:36:09.687Z,26.73
2019-03-01T00:39:18.936Z,17.80
2019-03-01T00:42:19.091Z,17.73
2019-03-01T00:44:48.802Z,21.80
2019-03-01T00:47:18.228Z,15.45
2019-03-01T00:49:47.615Z,20.10
2019-03-01T00:52:16.740Z,16.60
2019-03-01T00:54:46.441Z,17.97
2019-03-01T00:57:16.134Z,19.83
2019-03-01T00:59:45.574Z,17.70
2019-03-01T01:02:14.833Z,23.13
2019-03-01T01:04:44.004Z,20.27
2019-03-01T01:07:13.152Z,17.00
2019-03-01T01:09:42.303Z,18.60
2019-03-01T01:12:12.150Z,16.50
2019-03-01T01:14:41.771Z,20.65
2019-03-01T01:17:10.983Z,29.77
2019-03-01T01:19:40.220Z,20.72
2019-03-01T01:22:09.371Z,21.53
2019-03-01T01:24:38.621Z,17.53
2019-03-01T01:27:07.799Z,17.57
2019-03-01T01:29:37.007Z,21.70
2019-03-01T01:32:06.159Z,24.65
2019-03-01T01:34:35.345Z,15.83
2019-03-01T01:37:04.506Z,18.97
2019-03-01T01:39:33.680Z,20.77
2019-03-01T01:42:02.879Z,16.23
2019-03-01T01:44:32.017Z,17.50
2019-03-01T01:47:01.434Z,22.73
2019-03-01T01:49:30.651Z,16.70
2019-03-01T01:52:00.383Z,24.23
2019-03-01T01:54:29.593Z,16.50
2019-03-01T01:56:58.738Z,18.97
2019-03-01T01:59:28.216Z,18.23
2019-03-01T02:01:57.459Z,17.37
2019-03-01T02:04:26.647Z,20.47
2019-03-01T02:06:55.919Z,22.17
2019-03-01T02:09:27.223Z,24.00
2019-03-01T02:11:56.618Z,29.93
2019-03-01T02:14:25.823Z,22.07
2019-03-01T02:16:54.950Z,16.43
2019-03-01T02:19:24.680Z,16.37
2019-03-01T02:21:53.918Z,14.70
2019-03-01T02:24:23.178Z,15.70
2019-03-01T02:27:11.659Z,20.10
2019-03-01T02:29:40.788Z,19.80
2019-03-01T02:32:10.300Z,20.43
2019-03-01T02:34:39.470Z,15.40
2019-03-01T02:37:09.239Z,19.15
2019-03-01T02:39:38.389Z,20.00
2019-03-01T02:42:07.802Z,14.30
2019-03-01T02:44:37.007Z,13.73
2019-03-01T02:47:06.186Z,14.38
2019-03-01T02:49:35.396Z,15.20
2019-03-01T02:52:04.776Z,15.93
2019-03-01T02:54:33.956Z,11.43
2019-03-01T02:57:03.467Z,17.27
2019-03-01T02:59:32.892Z,14.07
2019-03-01T03:02:02.515Z,18.98
2019-03-01T03:04:32.136Z,16.13
2019-03-01T03:07:09.241Z,14.47
2019-03-01T03:09:38.406Z,10.70
2019-03-01T03:12:07.655Z,10.03
2019-03-01T03:14:37.236Z,10.80
2019-03-01T03:17:06.709Z,10.40
2019-03-01T03:19:35.870Z,11.17
2019-03-01T03:22:05.462Z,12.53
2019-03-01T03:24:36.938Z,10.63
2019-03-01T03:27:06.365Z,18.10
2019-03-01T03:29:36.765Z,11.20
2019-03-01T03:32:06.135Z,13.30
2019-03-01T03:34:35.703Z,8.97
2019-03-01T03:37:05.015Z,8.30
2019-03-01T03:39:34.163Z,9.00
2019-03-01T03:42:03.333Z,11.90
2019-03-01T03:44:33.116Z,14.93
2019-03-01T03:47:02.381Z,10.13
2019-03-01T03:49:31.497Z,12.67
2019-03-01T03:52:00.653Z,18.00
2019-03-01T03:54:30.108Z,10.33
2019-03-01T03:56:59.410Z,11.07
2019-03-01T03:59:28.919Z,10.07
2019-03-01T04:01:58.260Z,10.90
2019-03-01T04:04:27.820Z,15.93
2019-03-01T04:06:57.008Z,8.03
2019-03-01T04:09:26.127Z,10.33
2019-03-01T04:11:55.265Z,14.20
2019-03-01T04:14:24.480Z,12.13
2019-03-01T04:16:54.108Z,20.00
2019-03-01T04:19:23.351Z,12.35
2019-03-01T04:21:52.617Z,14.30
2019-03-01T04:24:22.086Z,18.47
2019-03-01T04:26:51.291Z,11.57
2019-03-01T04:29:20.516Z,12.47
2019-03-01T04:31:50.031Z,15.10
2019-03-01T04:34:19.300Z,16.17
2019-03-01T04:36:48.437Z,16.80
2019-03-01T04:39:17.633Z,12.93
2019-03-01T04:41:47.104Z,10.40
2019-03-01T04:44:16.357Z,13.80
2019-03-01T04:46:45.607Z,13.70
2019-03-01T04:49:14.925Z,19.33
2019-03-01T04:51:44.203Z,12.60
2019-03-01T04:54:13.661Z,16.50
2019-03-01T04:56:43.210Z,13.97
2019-03-01T04:59:12.648Z,13.20
2019-03-01T05:01:42.030Z,16.17
2019-03-01T05:04:12.179Z,18.60
2019-03-01T05:06:41.769Z,13.95
2019-03-01T05:09:11.267Z,13.40
2019-03-01T05:11:41.168Z,21.20
2019-03-01T05:14:10.400Z,16.07
2019-03-01T05:16:39.603Z,16.52
2019-03-01T05:19:08.774Z,13.43
2019-03-01T05:21:37.904Z,19.12
2019-03-01T05:24:08.109Z,18.60
2019-03-01T05:26:37.664Z,18.60
2019-03-01T05:29:07.003Z,21.68
2019-03-01T05:31:36.133Z,22.35
2019-03-01T05:34:05.300Z,14.17
2019-03-01T05:36:34.756Z,16.40
2019-03-01T05:39:04.832Z,15.37
2019-03-01T05:41:33.954Z,19.57
2019-03-01T05:44:03.214Z,12.43
2019-03-01T05:46:32.648Z,16.93
2019-03-01T05:49:02.263Z,25.20
2019-03-01T05:51:31.528Z,16.63
2019-03-01T05:54:00.667Z,22.57
2019-03-01T05:56:31.178Z,20.23
2019-03-01T05:59:12.360Z,17.70
2019-03-01T06:02:05.001Z,22.23
2019-03-01T06:04:41.071Z,17.33
2019-03-01T06:07:41.702Z,18.23
2019-03-01T06:10:27.148Z,23.10
2019-03-01T06:13:28.051Z,16.67
2019-03-01T06:16:15.951Z,18.03
2019-03-01T06:19:15.712Z,16.23
2019-03-01T06:22:35.244Z,21.65
2019-03-01T06:25:35.379Z,20.17
2019-03-01T06:28:24.962Z,17.23
2019-03-01T06:31:19.779Z,23.70
2019-03-01T06:34:51.443Z,18.48
2019-03-01T06:38:12.074Z,19.93
2019-03-01T06:41:20.686Z,22.07
2019-03-01T06:44:18.112Z,24.00
2019-03-01T06:47:12.668Z,16.00
2019-03-01T06:49:59.572Z,24.13
2019-03-01T06:52:28.818Z,20.03
2019-03-01T06:54:58.030Z,19.48
2019-03-01T06:57:27.250Z,15.27
2019-03-01T06:59:56.493Z,18.00
2019-03-01T07:02:31.983Z,19.83
2019-03-01T07:05:01.186Z,16.17
2019-03-01T07:07:30.440Z,20.88
2019-03-01T07:09:59.709Z,20.90
2019-03-01T07:12:29.043Z,17.20
2019-03-01T07:14:58.305Z,22.10
2019-03-01T07:17:27.596Z,21.93
2019-03-01T07:19:57.082Z,19.60
2019-03-01T07:22:26.690Z,18.83
2019-03-01T07:24:55.887Z,19.90
2019-03-01T07:27:25.145Z,25.80
2019-03-01T08:40:32.936Z,17.03
2019-03-01T08:43:02.791Z,16.52
2019-03-01T08:45:33.026Z,18.20
2019-03-01T09:50:34.578Z,12.63
2019-03-01T09:53:04.318Z,9.70
2019-03-01T09:55:34.859Z,8.97
2019-03-01T11:02:42.349Z,4.17
2019-03-01T11:05:11.803Z,5.60
2019-03-01T11:07:40.971Z,4.33
2019-03-01T12:10:32.297Z,7.20
2019-03-01T12:13:01.484Z,6.67
2019-03-01T12:15:30.649Z,5.20
2019-03-01T13:22:27.929Z,51.63
2019-03-01T13:24:58.235Z,59.83
2019-03-01T13:27:27.479Z,52.40
2019-03-01T14:32:00.114Z,72.43
2019-03-01T14:34:29.316Z,74.70
2019-03-01T14:36:58.565Z,71.37
2019-03-01T15:41:45.348Z,52.73
2019-03-01T15:44:14.498Z,56.23
2019-03-01T15:46:46.338Z,59.30
2019-03-01T16:05:30.191Z,48.33
2019-03-01T16:08:00.236Z,54.47
2019-03-01T16:10:32.932Z,46.47
2019-03-01T16:13:01.195Z,48.80
2019-03-01T16:15:30.624Z,45.40
2019-03-01T16:18:01.780Z,49.63
2019-03-01T16:20:31.122Z,42.90
2019-03-01T16:23:00.636Z,49.20
2019-03-01T16:25:29.920Z,44.20
2019-03-01T16:27:59.325Z,50.23
2019-03-01T16:30:28.595Z,51.27
2019-03-01T16:32:57.857Z,52.90
2019-03-01T16:35:27.327Z,48.63
2019-03-01T16:38:01.560Z,63.48
2019-03-01T16:40:29.375Z,62.10
2019-03-01T16:42:58.483Z,53.73
2019-03-01T16:45:28.082Z,52.73
2019-03-01T16:47:57.264Z,52.73
2019-03-01T16:50:26.458Z,56.87
2019-03-01T16:52:55.701Z,52.00
2019-03-01T16:55:28.001Z,46.90
2019-03-01T16:58:06.257Z,53.40
2019-03-01T17:00:27.447Z,53.70
2019-03-01T17:02:57.097Z,49.30
2019-03-01T17:05:26.966Z,47.37
2019-03-01T17:07:59.796Z,45.05
2019-03-01T17:10:30.266Z,54.90
2019-03-01T17:12:58.739Z,49.63
2019-03-01T17:15:28.642Z,51.23
2019-03-01T17:17:58.125Z,48.23
2019-03-01T17:20:27.620Z,49.60
2019-03-01T17:22:59.734Z,47.80
2019-03-01T17:25:28.067Z,44.60
2019-03-01T17:27:58.414Z,53.30
2019-03-01T17:30:27.668Z,41.07
2019-03-01T17:32:57.530Z,38.67
2019-03-01T17:35:27.369Z,49.80
2019-03-01T17:37:56.655Z,45.70
2019-03-01T17:40:29.440Z,46.83
2019-03-01T17:42:57.428Z,42.27
2019-03-01T17:45:26.724Z,40.43
2019-03-01T17:47:55.896Z,39.10
2019-03-01T17:50:25.116Z,34.50
2019-03-01T17:52:54.367Z,41.30
2019-03-01T17:55:24.420Z,43.77
2019-03-01T17:57:53.779Z,35.93
2019-03-01T18:00:28.565Z,36.60
2019-03-01T18:02:57.837Z,41.53
2019-03-01T18:05:27.155Z,40.83
2019-03-01T18:07:59.861Z,41.15
2019-03-01T18:10:28.740Z,39.77
2019-03-01T18:12:59.084Z,31.10
2019-03-01T18:15:28.286Z,37.35
2019-03-01T18:17:57.826Z,34.00
2019-03-01T18:20:27.143Z,35.80
2019-03-01T18:23:02.165Z,38.37
2019-03-01T18:25:32.580Z,33.87
2019-03-01T18:28:03.720Z,33.47
2019-03-01T18:30:33.181Z,33.90
2019-03-01T18:33:02.485Z,38.10
2019-03-01T18:35:32.070Z,31.63
2019-03-01T18:38:01.303Z,37.95
2019-03-01T18:40:30.744Z,33.92
2019-03-01T18:43:00.336Z,31.27
2019-03-01T18:45:30.192Z,34.20
2019-03-01T18:47:59.454Z,32.80
2019-03-01T18:50:31.347Z,27.13
2019-03-01T18:53:00.865Z,29.30
2019-03-01T18:55:30.494Z,26.03
2019-03-01T18:57:59.809Z,28.57
2019-03-01T19:00:32.468Z,30.83
2019-03-01T19:03:05.492Z,29.43
2019-03-01T19:05:36.759Z,25.33
2019-03-01T19:08:07.288Z,28.73
2019-03-01T19:10:36.890Z,25.30
2019-03-01T19:13:08.030Z,27.67
2019-03-01T19:15:48.026Z,26.70
2019-03-01T19:18:17.005Z,26.37
2019-03-01T19:20:48.779Z,25.57
2019-03-01T19:23:18.327Z,24.00
2019-03-01T19:25:50.354Z,28.70
2019-03-01T19:28:23.655Z,31.90
2019-03-01T19:30:51.940Z,26.05
2019-03-01T19:33:22.831Z,27.13
2019-03-01T19:35:52.246Z,27.47
2019-03-01T19:38:21.810Z,25.17
2019-03-01T19:40:52.707Z,21.00
2019-03-01T19:43:21.924Z,28.35
2019-03-01T19:45:52.592Z,23.43
2019-03-01T19:48:21.887Z,19.90
2019-03-01T19:50:52.194Z,24.25
2019-03-01T19:53:25.345Z,29.83
2019-03-01T19:55:52.735Z,33.97
2019-03-01T19:58:21.989Z,28.13
2019-03-01T20:00:52.252Z,34.10
2019-03-01T20:03:22.424Z,40.47
2019-03-01T20:05:52.300Z,45.87
2019-03-01T20:08:22.822Z,43.17
2019-03-01T20:10:53.381Z,45.87
2019-03-01T20:13:22.760Z,40.17
2019-03-01T20:15:51.999Z,41.03
2019-03-01T20:18:22.559Z,42.60
2019-03-01T20:20:51.875Z,39.63
2019-03-01T20:23:21.538Z,38.70
2019-03-01T20:25:52.061Z,43.43
2019-03-01T20:28:21.437Z,39.20
2019-03-01T20:30:53.506Z,41.50
2019-03-01T20:33:26.784Z,44.30
2019-03-01T20:35:55.264Z,33.30
2019-03-01T20:38:24.772Z,35.47
2019-03-01T20:40:54.114Z,34.60
2019-03-01T20:43:24.100Z,29.80
2019-03-01T20:46:03.807Z,31.97
2019-03-01T20:48:32.841Z,31.85
2019-03-01T20:51:03.512Z,31.87
2019-03-01T20:53:35.063Z,29.63
2019-03-01T20:56:04.946Z,35.37
2019-03-01T20:58:35.768Z,29.85
2019-03-01T21:01:14.375Z,32.10
2019-03-01T21:03:43.674Z,27.83
2019-03-01T21:06:12.997Z,31.00
2019-03-01T21:08:42.930Z,34.40
2019-03-01T21:11:12.220Z,34.05
2019-03-01T21:13:41.831Z,35.63
2019-03-01T21:16:11.446Z,32.00
2019-03-01T21:18:41.538Z,38.30
2019-03-01T21:21:10.886Z,31.63
2019-03-01T21:23:40.100Z,33.60
2019-03-01T21:26:12.038Z,30.03
2019-03-01T21:28:41.859Z,31.53
2019-03-01T21:31:11.169Z,31.65
2019-03-01T21:33:40.736Z,36.93
2019-03-01T21:36:10.236Z,40.60
2019-03-01T21:38:39.489Z,35.07
2019-03-01T21:41:09.817Z,30.77
2019-03-01T21:43:40.232Z,38.33
2019-03-01T21:46:09.515Z,29.07
2019-03-01T21:48:38.767Z,30.60
2019-03-01T21:51:08.028Z,30.43
2019-03-01T21:53:39.853Z,31.23
2019-03-01T21:56:08.774Z,33.33
2019-03-01T21:58:38.500Z,33.73
2019-03-01T22:01:09.280Z,36.75
2019-03-01T22:03:40.578Z,35.00
2019-03-01T22:06:09.430Z,37.37
2019-03-01T22:08:40.466Z,36.93
2019-03-01T22:11:10.483Z,39.57
2019-03-01T22:13:41.888Z,34.20
2019-03-01T22:16:11.379Z,38.00
2019-03-01T22:18:40.634Z,37.67
2019-03-01T22:21:10.658Z,33.07
2019-03-01T22:23:39.883Z,36.35
2019-03-01T22:26:09.654Z,37.35
2019-03-01T22:28:40.023Z,34.80
2019-03-01T22:31:09.470Z,38.35
2019-03-01T22:33:38.618Z,35.07
2019-03-01T22:36:08.277Z,37.67
2019-03-01T22:38:41.451Z,38.10
2019-03-01T22:41:10.187Z,37.40
2019-03-01T22:43:40.310Z,42.20
2019-03-01T22:46:10.110Z,36.30
2019-03-01T22:48:46.712Z,33.97
2019-03-01T22:51:10.551Z,40.07
2019-03-01T22:53:42.058Z,37.30
2019-03-01T22:56:12.057Z,34.33
2019-03-01T22:58:41.624Z,34.90
2019-03-01T23:01:17.912Z,42.90
2019-03-01T23:03:51.562Z,42.20
2019-03-01T23:06:21.889Z,49.07
2019-03-01T23:08:51.056Z,46.17
2019-03-01T23:11:20.334Z,34.65
2019-03-01T23:13:52.816Z,38.73
2019-03-01T23:16:22.464Z,44.80
2019-03-01T23:18:56.672Z,42.77
2019-03-01T23:21:22.815Z,44.17
2019-03-01T23:23:52.340Z,39.57
2019-03-01T23:26:22.420Z,45.97
2019-03-01T23:28:51.858Z,42.90
2019-03-01T23:31:21.081Z,41.17
2019-03-01T23:33:50.598Z,40.10
2019-03-01T23:36:19.853Z,39.67
2019-03-01T23:38:50.197Z,42.10
2019-03-01T23:41:20.161Z,44.63
2019-03-01T23:43:49.475Z,36.03
2019-03-01T23:46:18.905Z,40.17
2019-03-01T23:48:48.864Z,40.80
2019-03-01T23:51:18.903Z,38.43
2019-03-01T23:53:48.355Z,40.23
2019-03-01T23:56:18.409Z,38.07
2019-03-01T23:58:51.566Z,44.77
